createdAt,value
2022-10-03T00:00:16.738Z,9.40
2022-10-03T00:03:22.038Z,9.40
2022-10-03T00:05:56.305Z,9.40
2022-10-03T00:08:53.644Z,9.50
2022-10-03T00:11:36.290Z,9.50
2022-10-03T00:14:18.742Z,9.60
2022-10-03T00:16:49.180Z,9.50
2022-10-03T00:19:18.625Z,9.50
2022-10-03T00:22:26.549Z,9.50
2022-10-03T00:25:20.974Z,9.50
2022-10-03T00:28:07.583Z,9.40
2022-10-03T00:30:57.339Z,9.40
2022-10-03T00:33:38.613Z,9.30
2022-10-03T00:36:16.864Z,9.30
2022-10-03T00:39:22.191Z,9.30
2022-10-03T00:42:01.323Z,9.20
2022-10-03T00:44:38.090Z,9.30
2022-10-03T00:47:26.126Z,9.30
2022-10-03T00:50:08.136Z,9.30
2022-10-03T00:52:57.825Z,9.30
2022-10-03T00:55:49.268Z,9.30
2022-10-03T00:58:43.278Z,9.30
2022-10-03T01:01:27.627Z,9.30
2022-10-03T01:04:03.643Z,9.30
2022-10-03T01:06:43.686Z,9.30
2022-10-03T01:09:52.816Z,9.40
2022-10-03T01:12:37.346Z,9.40
2022-10-03T01:15:03.978Z,9.40
2022-10-03T01:18:01.706Z,9.30
2022-10-03T01:21:01.094Z,9.40
2022-10-03T01:23:40.705Z,9.40
2022-10-03T01:26:32.344Z,9.40
2022-10-03T01:29:52.953Z,9.40
2022-10-03T01:32:43.162Z,9.40
2022-10-03T01:35:22.613Z,9.40
2022-10-03T01:38:20.407Z,9.50
2022-10-03T01:41:04.036Z,9.50
2022-10-03T01:43:55.603Z,9.50
2022-10-03T01:46:33.798Z,9.50
2022-10-03T01:49:02.726Z,9.50
2022-10-03T01:51:50.278Z,9.50
2022-10-03T01:54:42.676Z,9.50
2022-10-03T01:57:35.796Z,9.50
2022-10-03T02:00:17.754Z,9.60
2022-10-03T02:03:16.889Z,9.60
2022-10-03T02:06:06.761Z,9.60
2022-10-03T02:09:00.871Z,9.60
2022-10-03T02:11:50.865Z,9.60
2022-10-03T02:14:34.499Z,9.60
2022-10-03T02:17:30.427Z,9.60
2022-10-03T02:20:09.055Z,9.60
2022-10-03T02:22:45.965Z,9.60
2022-10-03T02:25:40.852Z,9.60
2022-10-03T02:28:28.362Z,9.60
2022-10-03T02:31:21.489Z,9.70
2022-10-03T02:34:16.463Z,9.70
2022-10-03T02:36:52.513Z,9.70
2022-10-03T02:39:45.935Z,9.60
2022-10-03T02:42:31.537Z,9.70
2022-10-03T02:45:16.648Z,9.70
2022-10-03T02:48:34.069Z,9.70
2022-10-03T02:51:35.829Z,9.70
2022-10-03T02:54:03.272Z,9.70
2022-10-03T02:56:49.783Z,9.70
2022-10-03T02:59:53.480Z,9.70
2022-10-03T03:02:56.252Z,9.70
2022-10-03T03:05:58.151Z,9.80
2022-10-03T03:08:50.110Z,9.70
2022-10-03T03:11:47.551Z,9.80
2022-10-03T03:14:42.255Z,9.80
2022-10-03T03:17:31.016Z,9.70
2022-10-03T03:20:31.543Z,9.70
2022-10-03T03:23:49.298Z,9.80
2022-10-03T03:26:31.014Z,9.70
2022-10-03T03:29:16.279Z,9.70
2022-10-03T03:32:03.229Z,9.70
2022-10-03T03:34:51.085Z,9.70
2022-10-03T03:37:34.565Z,9.70
2022-10-03T03:40:04.378Z,9.60
2022-10-03T03:42:57.216Z,9.60
2022-10-03T03:45:30.858Z,9.60
2022-10-03T03:48:26.884Z,9.60
2022-10-03T03:51:33.073Z,9.50
2022-10-03T03:54:05.541Z,9.40
2022-10-03T03:56:45.899Z,9.40
2022-10-03T03:59:33.678Z,9.40
2022-10-03T04:02:15.503Z,9.40
2022-10-03T04:04:45.380Z,9.40
2022-10-03T04:07:22.087Z,9.40
2022-10-03T04:09:59.682Z,9.40
2022-10-03T04:12:31.939Z,9.40
2022-10-03T04:15:11.116Z,9.40
2022-10-03T04:18:24.908Z,9.40
2022-10-03T04:21:07.221Z,9.40
2022-10-03T04:23:33.931Z,9.40
2022-10-03T04:26:26.910Z,9.40
2022-10-03T04:29:31.291Z,9.40
2022-10-03T04:32:11.460Z,9.40
2022-10-03T04:34:51.377Z,9.30
2022-10-03T04:37:38.357Z,9.30
2022-10-03T04:40:19.739Z,9.30
2022-10-03T04:43:11.881Z,9.30
2022-10-03T04:45:42.632Z,9.30
2022-10-03T04:48:47.013Z,9.40
2022-10-03T04:51:37.941Z,9.40
2022-10-03T04:54:33.791Z,9.40
2022-10-03T04:57:26.480Z,9.50
2022-10-03T05:00:20.534Z,9.40
2022-10-03T05:03:15.336Z,9.50
2022-10-03T05:05:59.692Z,9.40
2022-10-03T05:09:01.697Z,9.40
2022-10-03T05:11:47.935Z,9.40
2022-10-03T05:14:24.389Z,9.30
2022-10-03T05:17:04.678Z,9.30
2022-10-03T05:19:41.545Z,9.30
2022-10-03T05:22:23.626Z,9.20
2022-10-03T05:25:10.387Z,9.20
2022-10-03T05:27:40.162Z,9.10
2022-10-03T05:30:22.526Z,9.10
2022-10-03T05:33:13.929Z,8.90
2022-10-03T05:36:23.671Z,8.90
2022-10-03T05:39:26.762Z,8.80
2022-10-03T05:42:23.158Z,8.70
2022-10-03T05:45:31.695Z,8.70
2022-10-03T05:48:32.720Z,8.60
2022-10-03T05:51:20.650Z,8.60
2022-10-03T05:54:08.854Z,8.60
2022-10-03T05:57:19.923Z,8.60
2022-10-03T06:00:02.463Z,8.60
2022-10-03T06:02:54.414Z,8.70
2022-10-03T06:05:46.366Z,8.70
2022-10-03T06:08:13.034Z,8.70
2022-10-03T06:11:08.555Z,8.70
2022-10-03T06:13:54.037Z,8.70
2022-10-03T06:17:09.983Z,8.70
2022-10-03T06:19:49.737Z,8.70
2022-10-03T06:23:10.698Z,8.60
2022-10-03T06:26:06.946Z,8.60
2022-10-03T06:28:51.235Z,8.60
2022-10-03T06:31:40.230Z,8.70
2022-10-03T06:34:36.302Z,8.70
2022-10-03T06:37:31.071Z,8.80
2022-10-03T06:40:26.073Z,8.90
2022-10-03T06:43:01.808Z,9.00
2022-10-03T06:45:50.669Z,9.20
2022-10-03T06:48:25.018Z,9.30
2022-10-03T06:51:08.311Z,9.40
2022-10-03T06:53:43.973Z,9.50
2022-10-03T06:56:53.524Z,9.70
2022-10-03T06:59:30.711Z,9.80
2022-10-03T07:02:03.430Z,9.80
2022-10-03T07:04:47.847Z,9.90
2022-10-03T07:07:45.819Z,9.90
2022-10-03T07:10:41.142Z,10.00
2022-10-03T07:13:15.868Z,10.00
2022-10-03T07:16:27.831Z,10.10
2022-10-03T07:19:06.227Z,10.20
2022-10-03T07:22:08.479Z,10.20
2022-10-03T07:25:02.734Z,10.40
2022-10-03T07:27:51.244Z,10.60
2022-10-03T07:30:26.588Z,10.70
2022-10-03T07:33:33.392Z,10.80
2022-10-03T07:36:51.914Z,10.90
2022-10-03T07:39:52.808Z,10.90
2022-10-03T07:42:22.338Z,11.00
2022-10-03T07:45:01.140Z,11.00
2022-10-03T07:47:42.882Z,11.10
2022-10-03T07:50:28.460Z,11.30
2022-10-03T07:53:21.085Z,11.60
2022-10-03T07:56:10.062Z,11.70
2022-10-03T07:58:52.045Z,12.20
2022-10-03T08:01:37.206Z,12.80
2022-10-03T08:04:23.111Z,13.70
2022-10-03T08:07:20.735Z,14.60
2022-10-03T08:10:06.180Z,15.10
2022-10-03T08:12:40.374Z,15.40
2022-10-03T08:15:21.521Z,15.40
2022-10-03T08:18:08.507Z,15.40
2022-10-03T08:20:44.175Z,15.30
2022-10-03T08:23:36.211Z,15.20
2022-10-03T08:26:23.498Z,15.40
2022-10-03T08:29:12.322Z,15.50
2022-10-03T08:32:11.644Z,15.40
2022-10-03T08:34:47.503Z,15.40
2022-10-03T08:37:38.684Z,15.50
2022-10-03T08:40:53.546Z,15.80
2022-10-03T08:43:50.421Z,16.10
2022-10-03T08:47:09.532Z,16.10
2022-10-03T08:49:45.459Z,16.00
2022-10-03T08:52:33.402Z,15.80
2022-10-03T08:55:35.937Z,15.60
2022-10-03T08:58:24.755Z,15.40
2022-10-03T09:01:19.084Z,15.60
2022-10-03T09:04:07.120Z,15.90
2022-10-03T09:10:16.354Z,15.70
2022-10-03T09:12:52.724Z,16.30
2022-10-03T09:15:41.778Z,17.00
2022-10-03T09:18:42.461Z,18.00
2022-10-03T09:21:45.882Z,18.50
2022-10-03T09:24:42.213Z,18.90
2022-10-03T09:27:33.793Z,19.00
2022-10-03T09:30:15.847Z,19.30
2022-10-03T09:33:20.793Z,19.40
2022-10-03T09:36:02.082Z,19.80
2022-10-03T09:38:43.845Z,20.10
2022-10-03T09:41:40.007Z,19.90
2022-10-03T09:44:19.864Z,19.60
2022-10-03T09:47:17.425Z,19.30
2022-10-03T09:49:55.076Z,19.20
2022-10-03T09:52:22.790Z,19.10
2022-10-03T09:55:06.688Z,19.20
2022-10-03T09:57:56.074Z,19.00
2022-10-03T10:00:34.670Z,19.00
2022-10-03T10:03:05.859Z,18.90
2022-10-03T10:05:49.412Z,19.10
2022-10-03T10:09:08.171Z,19.30
2022-10-03T10:11:54.833Z,20.10
2022-10-03T10:14:53.735Z,20.80
2022-10-03T10:17:40.131Z,20.90
2022-10-03T10:20:37.939Z,20.90
2022-10-03T10:23:19.859Z,20.70
2022-10-03T10:26:06.091Z,20.50
2022-10-03T10:28:57.829Z,20.60
2022-10-03T10:31:43.927Z,20.40
2022-10-03T10:34:31.984Z,20.60
2022-10-03T10:37:01.791Z,21.30
2022-10-03T10:39:59.853Z,21.60
2022-10-03T10:42:41.843Z,21.70
2022-10-03T10:45:14.172Z,21.40
2022-10-03T10:48:17.044Z,21.50
2022-10-03T10:51:05.998Z,22.00
2022-10-03T10:53:54.276Z,22.70
2022-10-03T10:56:27.496Z,23.50
2022-10-03T10:59:22.449Z,24.10
2022-10-03T11:02:07.798Z,23.90
2022-10-03T11:04:34.831Z,23.70
2022-10-03T11:07:24.408Z,23.30
2022-10-03T11:10:13.013Z,22.80
2022-10-03T11:12:56.272Z,22.10
2022-10-03T11:15:43.349Z,21.50
2022-10-03T11:18:16.188Z,21.00
2022-10-03T11:21:04.618Z,20.50
2022-10-03T11:23:53.043Z,20.10
2022-10-03T11:26:57.650Z,19.60
2022-10-03T11:30:03.206Z,19.30
2022-10-03T11:32:48.086Z,18.90
2022-10-03T11:35:43.269Z,19.00
2022-10-03T11:38:30.184Z,19.60
2022-10-03T11:40:56.847Z,20.30
2022-10-03T11:43:50.920Z,21.00
2022-10-03T11:46:46.045Z,21.40
2022-10-03T11:49:36.085Z,21.70
2022-10-03T11:52:02.773Z,21.40
2022-10-03T11:54:35.806Z,21.30
2022-10-03T11:57:09.153Z,20.80
2022-10-03T11:59:48.137Z,20.10
2022-10-03T12:02:28.917Z,19.60
2022-10-03T12:05:02.411Z,19.10
2022-10-03T12:07:58.690Z,18.50
2022-10-03T12:11:06.251Z,18.10
2022-10-03T12:14:01.609Z,17.80
2022-10-03T12:17:17.864Z,17.70
2022-10-03T12:20:18.169Z,17.70
2022-10-03T12:22:56.592Z,17.50
2022-10-03T12:25:26.460Z,17.40
2022-10-03T12:28:01.147Z,17.40
2022-10-03T12:30:41.218Z,17.60
2022-10-03T12:33:40.322Z,17.90
2022-10-03T12:36:15.870Z,18.40
2022-10-03T12:39:15.563Z,18.60
2022-10-03T12:42:16.526Z,18.70
2022-10-03T12:44:52.586Z,18.60
2022-10-03T12:47:54.888Z,18.50
2022-10-03T12:50:40.084Z,18.40
2022-10-03T12:53:16.227Z,18.30
2022-10-03T12:55:52.174Z,18.10
2022-10-03T12:58:43.261Z,17.90
2022-10-03T13:01:12.855Z,17.70
2022-10-03T13:04:13.062Z,17.60
2022-10-03T13:07:13.221Z,17.50
2022-10-03T13:10:18.283Z,17.40
2022-10-03T13:13:02.591Z,17.30
2022-10-03T13:15:49.104Z,17.20
2022-10-03T13:18:26.750Z,17.10
2022-10-03T13:21:21.417Z,17.10
2022-10-03T13:24:01.081Z,17.00
2022-10-03T13:26:58.694Z,17.00
2022-10-03T13:29:31.829Z,17.00
2022-10-03T13:32:07.518Z,17.20
2022-10-03T13:35:21.158Z,17.50
2022-10-03T13:38:09.844Z,17.80
2022-10-03T13:40:43.373Z,18.30
2022-10-03T13:43:13.844Z,18.30
2022-10-03T13:45:45.096Z,18.10
2022-10-03T13:48:20.009Z,18.00
2022-10-03T13:51:02.504Z,17.80
2022-10-03T13:53:48.271Z,17.70
2022-10-03T13:56:39.699Z,17.60
2022-10-03T13:59:15.558Z,17.40
2022-10-03T14:02:10.395Z,17.20
2022-10-03T14:04:46.768Z,17.10
2022-10-03T14:07:13.593Z,17.00
2022-10-03T14:09:49.654Z,17.00
2022-10-03T14:12:54.896Z,17.10
2022-10-03T14:15:25.855Z,17.20
2022-10-03T14:18:20.425Z,17.30
2022-10-03T14:21:18.216Z,17.20
2022-10-03T14:23:56.956Z,17.20
2022-10-03T14:26:38.527Z,17.20
2022-10-03T14:29:17.417Z,17.10
2022-10-03T14:32:22.570Z,17.00
2022-10-03T14:35:17.679Z,16.80
2022-10-03T14:38:06.998Z,16.70
2022-10-03T14:40:42.526Z,16.70
2022-10-03T14:43:18.135Z,16.80
2022-10-03T14:45:53.537Z,17.00
2022-10-03T14:48:37.427Z,17.00
2022-10-03T14:51:19.038Z,16.80
2022-10-03T14:54:18.402Z,16.80
2022-10-03T14:56:47.755Z,16.80
2022-10-03T14:59:32.769Z,16.80
2022-10-03T15:02:20.486Z,16.70
2022-10-03T15:04:52.487Z,16.70
2022-10-03T15:07:36.252Z,16.60
2022-10-03T15:10:10.124Z,16.50
2022-10-03T15:12:41.231Z,16.40
2022-10-03T15:15:15.727Z,16.40
2022-10-03T15:17:53.367Z,16.20
2022-10-03T15:20:26.863Z,16.20
2022-10-03T15:22:57.505Z,16.20
2022-10-03T15:25:30.610Z,16.20
2022-10-03T15:27:59.137Z,16.20
2022-10-03T15:30:32.044Z,16.20
2022-10-03T15:33:15.794Z,16.10
2022-10-03T15:35:46.899Z,16.10
2022-10-03T15:38:27.407Z,16.00
2022-10-03T15:41:11.364Z,15.80
2022-10-03T15:43:56.927Z,15.70
2022-10-03T15:46:33.082Z,15.50
2022-10-03T15:49:24.662Z,15.30
2022-10-03T15:51:57.995Z,15.10
2022-10-03T15:54:29.952Z,15.00
2022-10-03T15:57:00.365Z,14.90
2022-10-03T15:59:35.321Z,14.80
2022-10-03T16:02:35.423Z,14.60
2022-10-03T16:05:16.765Z,14.50
2022-10-03T16:08:07.769Z,14.40
2022-10-03T16:10:40.592Z,14.20
2022-10-03T16:13:39.331Z,14.10
2022-10-03T16:16:26.365Z,14.00
2022-10-03T16:19:08.501Z,13.90
2022-10-03T16:22:07.264Z,13.80
2022-10-03T16:24:41.728Z,13.70
2022-10-03T16:27:13.968Z,13.70
2022-10-03T16:29:49.981Z,13.60
2022-10-03T16:32:22.633Z,13.50
2022-10-03T16:34:50.452Z,13.40
2022-10-03T16:37:29.841Z,13.30
2022-10-03T16:40:07.700Z,13.20
2022-10-03T16:42:45.318Z,13.10
2022-10-03T16:45:30.995Z,13.10
2022-10-03T16:48:19.660Z,13.00
2022-10-03T16:50:52.804Z,12.80
2022-10-03T16:53:22.258Z,12.70
2022-10-03T16:55:57.820Z,12.50
2022-10-03T16:58:30.377Z,12.40
2022-10-03T17:01:25.872Z,12.30
2022-10-03T17:04:12.268Z,12.10
2022-10-03T17:06:40.427Z,11.90
2022-10-03T17:09:35.496Z,11.70
2022-10-03T17:12:14.185Z,11.50
2022-10-03T17:14:42.466Z,11.40
2022-10-03T17:17:57.525Z,11.30
2022-10-03T17:20:48.373Z,11.10
2022-10-03T17:23:39.904Z,11.00
2022-10-03T17:26:33.244Z,10.80
2022-10-03T17:29:02.850Z,10.70
2022-10-03T17:31:34.532Z,10.60
2022-10-03T17:34:09.472Z,10.50
2022-10-03T17:37:05.534Z,10.40
2022-10-03T17:40:07.343Z,10.30
2022-10-03T17:42:55.001Z,10.10
2022-10-03T17:46:02.172Z,10.00
2022-10-03T17:48:46.186Z,9.90
2022-10-03T17:51:39.287Z,9.80
2022-10-03T17:54:19.494Z,9.70
2022-10-03T17:56:54.727Z,9.60
2022-10-03T17:59:32.491Z,9.60
2022-10-03T18:02:15.779Z,9.50
2022-10-03T18:04:46.052Z,9.40
2022-10-03T18:07:18.401Z,9.30
2022-10-03T18:09:54.485Z,9.20
2022-10-03T18:12:40.344Z,9.10
2022-10-03T18:15:52.248Z,9.00
2022-10-03T18:18:25.015Z,8.90
2022-10-03T18:21:00.833Z,8.80
2022-10-03T18:24:11.167Z,8.70
2022-10-03T18:26:44.063Z,8.60
2022-10-03T18:29:18.673Z,8.60
2022-10-03T18:31:52.384Z,8.50
2022-10-03T18:34:25.109Z,8.40
2022-10-03T18:36:55.086Z,8.30
2022-10-03T18:39:27.726Z,8.30
2022-10-03T18:41:58.694Z,8.20
2022-10-03T18:44:29.463Z,8.20
2022-10-03T18:47:07.114Z,8.20
2022-10-03T18:49:35.633Z,8.10
2022-10-03T18:52:20.815Z,8.00
2022-10-03T18:55:16.739Z,8.00
2022-10-03T18:58:13.834Z,7.90
2022-10-03T19:01:13.117Z,7.80
2022-10-03T19:03:54.198Z,7.70
2022-10-03T19:06:27.843Z,7.60
2022-10-03T19:09:15.889Z,7.60
2022-10-03T19:12:14.556Z,7.50
2022-10-03T19:15:01.270Z,7.40
2022-10-03T19:17:50.637Z,7.40
2022-10-03T19:20:31.280Z,7.30
2022-10-03T19:23:26.375Z,7.20
2022-10-03T19:25:57.223Z,7.20
2022-10-03T19:28:33.681Z,7.10
2022-10-03T19:31:17.532Z,7.10
2022-10-03T19:33:50.028Z,7.00
2022-10-03T19:36:22.428Z,7.00
2022-10-03T19:38:49.591Z,6.90
2022-10-03T19:41:38.145Z,6.90
2022-10-03T19:44:09.008Z,6.80
2022-10-03T19:47:00.141Z,6.80
2022-10-03T19:49:38.829Z,6.70
2022-10-03T19:52:42.011Z,6.70
2022-10-03T19:55:19.864Z,6.60
2022-10-03T19:58:13.904Z,6.50
2022-10-03T20:00:56.446Z,6.50
2022-10-03T20:03:32.347Z,6.50
2022-10-03T20:06:11.439Z,6.40
2022-10-03T20:08:52.823Z,6.40
2022-10-03T20:11:45.795Z,6.40
2022-10-03T20:14:23.628Z,6.30
2022-10-03T20:16:52.168Z,6.30
2022-10-03T20:20:01.694Z,6.20
2022-10-03T20:22:36.478Z,6.20
2022-10-03T20:25:07.598Z,6.20
2022-10-03T20:27:42.156Z,6.10
2022-10-03T20:30:35.674Z,6.10
2022-10-03T20:33:04.174Z,6.10
2022-10-03T20:35:42.043Z,6.00
2022-10-03T20:38:40.964Z,6.00
2022-10-03T20:41:20.568Z,5.90
2022-10-03T20:44:13.039Z,5.90
2022-10-03T20:47:00.273Z,5.80
2022-10-03T20:49:33.041Z,5.80
2022-10-03T20:52:07.528Z,5.80
2022-10-03T20:54:51.985Z,5.80
2022-10-03T20:57:47.718Z,5.70
2022-10-03T21:00:23.878Z,5.70
2022-10-03T21:03:07.425Z,5.70
2022-10-03T21:05:34.336Z,5.70
2022-10-03T21:08:04.337Z,5.80
2022-10-03T21:10:51.864Z,5.80
2022-10-03T21:13:36.889Z,5.80
2022-10-03T21:16:15.056Z,5.80
2022-10-03T21:18:46.127Z,5.70
2022-10-03T21:21:19.388Z,5.70
2022-10-03T21:24:11.208Z,5.60
2022-10-03T21:26:45.136Z,5.50
2022-10-03T21:29:26.572Z,5.50
2022-10-03T21:32:17.948Z,5.40
2022-10-03T21:35:00.823Z,5.30
2022-10-03T21:37:49.477Z,5.30
2022-10-03T21:40:40.818Z,5.20
2022-10-03T21:43:38.513Z,5.20
2022-10-03T21:46:31.057Z,5.20
2022-10-03T21:49:36.939Z,5.10
2022-10-03T21:52:29.687Z,5.00
2022-10-03T21:55:08.622Z,5.00
2022-10-03T21:57:54.501Z,4.90
2022-10-03T22:00:28.052Z,4.90
2022-10-03T22:03:00.918Z,4.80
2022-10-03T22:05:51.918Z,4.80
2022-10-03T22:08:30.427Z,4.80
2022-10-03T22:11:18.815Z,4.80
2022-10-03T22:13:57.953Z,4.80
2022-10-03T22:16:38.528Z,4.70
2022-10-03T22:19:21.508Z,4.70
2022-10-03T22:21:59.682Z,4.60
2022-10-03T22:24:40.280Z,4.60
2022-10-03T22:27:18.029Z,4.50
2022-10-03T22:30:01.521Z,4.50
2022-10-03T22:32:42.302Z,4.50
2022-10-03T22:35:17.909Z,4.50
2022-10-03T22:37:44.896Z,4.50
2022-10-03T22:40:13.071Z,4.50
2022-10-03T22:42:44.678Z,4.50
2022-10-03T22:45:12.937Z,4.40
2022-10-03T22:47:40.434Z,4.40
2022-10-03T22:50:12.896Z,4.40
2022-10-03T22:52:42.961Z,4.30
2022-10-03T22:55:13.968Z,4.30
2022-10-03T22:57:45.578Z,4.30
2022-10-03T23:00:20.246Z,4.30
2022-10-03T23:02:50.902Z,4.20
2022-10-03T23:05:46.330Z,4.20
2022-10-03T23:08:34.688Z,4.20
2022-10-03T23:11:24.379Z,4.20
2022-10-03T23:13:51.981Z,4.10
2022-10-03T23:16:40.725Z,4.10
2022-10-03T23:19:19.748Z,4.00
2022-10-03T23:21:48.965Z,4.00
2022-10-03T23:24:32.092Z,4.00
2022-10-03T23:27:22.547Z,3.90
2022-10-03T23:30:12.221Z,3.90
2022-10-03T23:32:48.249Z,3.90
2022-10-03T23:35:31.404Z,3.90
2022-10-03T23:38:00.031Z,3.90
2022-10-03T23:40:45.381Z,3.80
2022-10-03T23:43:35.895Z,3.80
2022-10-03T23:46:15.718Z,3.80
2022-10-03T23:48:56.246Z,3.70
2022-10-03T23:51:32.580Z,3.70
2022-10-03T23:54:05.162Z,3.70
2022-10-03T23:56:47.145Z,3.70
2022-10-03T23:59:14.113Z,3.70
